Althea — 9HAQ7 — position and weather

sailwx.info

Track history (hours):
 
Tides and Currents Weather Stations Pressure Air Temp Water Temp Dewpoint Dewpoint Depression Visibility Wind Speed Wind Dir Waves Ship Positions

Althea

Last reported at 2015-Jan-06 20:31 UTC. Time now 2015-Jan-25 03:56 UTC.
Position N 09°11' W 016°27'.
Warning: this ship's position is 18 days out of date.

; draft 7.8 m.

Type: Cargo ship. MMSI: 215047000.

Date/timePositionNaut miles runAvg speedWind from/ knotsBaromVisibWave heightAir tempDewpointWater temp
2015-Jan-06 20:31N 09°11' W 016°27'2512.6
2015-Jan-06 18:33N 09°29' W 016°44'8 8.1
2015-Jan-06 17:32N 09°36' W 016°49'1712.3
2015-Jan-06 16:10N 09°48' W 017°01'  
2014-Dec-31 21:28N 35°59' W 005°31'1011.4
2014-Dec-31 20:33N 36°07' W 005°22'1 0.8
2014-Dec-31 19:33N 36°07' W 005°22'0 0.1
2014-Dec-31 17:33N 36°07' W 005°22'0 0.1
2014-Dec-31 16:15N 36°07' W 005°22'0 0.0
2014-Dec-31 15:21N 36°07' W 005°22'0 0.0
2014-Dec-31 14:33N 36°07' W 005°22'0 0.0
2014-Dec-31 13:24N 36°07' W 005°22'1 1.7
2014-Dec-31 12:33N 36°06' W 005°22'5 4.7
2014-Dec-31 11:33N 36°06' W 005°16'5 1.5
2014-Dec-31 08:18N 36°08' W 005°10'2 3.3
2014-Dec-31 07:33N 36°08' W 005°13'2 1.7
2014-Dec-31 06:33N 36°08' W 005°11'2 1.7
2014-Dec-31 05:32N 36°08' W 005°09'2 1.6
2014-Dec-31 04:33N 36°07' W 005°07'  
Track history (hours):
 
Tides and Currents Weather Stations Pressure Air Temp Water Temp Dewpoint Dewpoint Depression Visibility Wind Speed Wind Dir Waves Ship Positions

Althea

Last reported at 2015-Jan-06 20:31 UTC. Time now 2015-Jan-25 03:56 UTC.
Position N 09°11' W 016°27'.
Warning: this ship's position is 18 days out of date.

; draft 7.8 m.

Type: Cargo ship. MMSI: 215047000.

Date/timePositionNaut miles runAvg speedWind from/ knotsBaromVisibWave heightAir tempDewpointWater temp
2015-Jan-06 20:31N 09°11' W 016°27'2512.6
2015-Jan-06 18:33N 09°29' W 016°44'8 8.1
2015-Jan-06 17:32N 09°36' W 016°49'1712.3
2015-Jan-06 16:10N 09°48' W 017°01'  
2014-Dec-31 21:28N 35°59' W 005°31'1011.4
2014-Dec-31 20:33N 36°07' W 005°22'1 0.8
2014-Dec-31 19:33N 36°07' W 005°22'0 0.1
2014-Dec-31 17:33N 36°07' W 005°22'0 0.1
2014-Dec-31 16:15N 36°07' W 005°22'0 0.0
2014-Dec-31 15:21N 36°07' W 005°22'0 0.0
2014-Dec-31 14:33N 36°07' W 005°22'0 0.0
2014-Dec-31 13:24N 36°07' W 005°22'1 1.7
2014-Dec-31 12:33N 36°06' W 005°22'5 4.7
2014-Dec-31 11:33N 36°06' W 005°16'5 1.5
2014-Dec-31 08:18N 36°08' W 005°10'2 3.3
2014-Dec-31 07:33N 36°08' W 005°13'2 1.7
2014-Dec-31 06:33N 36°08' W 005°11'2 1.7
2014-Dec-31 05:32N 36°08' W 005°09'2 1.6
2014-Dec-31 04:33N 36°07' W 005°07'  

Dump ship's entire track history